Terminal Aerodrome Forecast
Issued by NWS

Current Version | Previous Version | Text Only | Print | Product List | Glossary Off
Versions: 1 2 3 4 5 6 7 8 9 10 11 12 13 14 15 16 17 18 19 20

000
FTUS41 KPBZ 151700
TAFHLG
TAF
KHLG 151730Z 1518/1618 17005KT P6SM SCT100
     FM160000 24005KT P6SM -RA OVC050
     FM160400 27005KT P6SM -RA BKN015
     FM160900 31005KT P6SM OVC015
     FM161500 33008KT P6SM SCT035=

USA.gov is the U.S. government's official web portal to all federal, state and local government web resources and services.